Northway Airport Northway US
ICAO: PAOR
IATA:
Category: Medium
Scheduled Services:

Elevation: 1715 ft
TransAlt. 18000 ft.

Airport Communications:
ASOS:135.4
ANCHORAGE CNTR:126.55
CTAF:123.6
RDO:122.2
SUAS INFO SVC:125.3

PAOR Zoom In..

Runways:

(A) RW 05 length 5100 ft width 100 ft
---- / hdg 52

(B) RW 23 length 5100 ft width 100 ft
---- / hdg 232

Location; PAOR
Day. 23 / Time. 14.53 Zulu
* Altimeter: 29.86
* Temperature: -21° c. 5.8°f.
* Wind from: 330° Speed 07 kn.
Dewpoint: -23° c.
Visibility: 4 Statute Miles.
Clouds: Overcast 3500 ft.
Conditions: Light Snow.Conditions: Mist.

PAOR 231453Z 33007KT 4SM -SN BR OVC035 M21/M23 A2986 RMK AO2 SLP183 T12111228 51002


Wind From 330°
Speed 07 kn.

YouTube Music Video
 
jpsmedia.com for Web Design  worldairports.se 2018   terms of use